sensor_id;sensor_type;location;lat;lon;timestamp;P1;durP1;ratioP1;P2;durP2;ratioP2
9968;SDS011;5025;48.890;9.278;2023-04-26T07:29:12;9.40;;;8.50;;
9968;SDS011;5025;48.890;9.278;2023-04-26T07:31:38;8.90;;;8.10;;
9968;SDS011;5025;48.890;9.278;2023-04-26T07:34:03;8.00;;;7.30;;
9968;SDS011;5025;48.890;9.278;2023-04-26T07:36:28;9.67;;;7.93;;
9968;SDS011;5025;48.890;9.278;2023-04-26T07:38:53;8.50;;;7.67;;
9968;SDS011;5025;48.890;9.278;2023-04-26T07:41:19;8.20;;;6.87;;
9968;SDS011;5025;48.890;9.278;2023-04-26T07:43:44;7.77;;;7.07;;
9968;SDS011;5025;48.890;9.278;2023-04-26T07:46:09;7.17;;;6.47;;
9968;SDS011;5025;48.890;9.278;2023-04-26T07:48:35;10.93;;;9.03;;
9968;SDS011;5025;48.890;9.278;2023-04-26T07:51:07;8.93;;;8.07;;
9968;SDS011;5025;48.890;9.278;2023-04-26T07:53:36;8.70;;;7.80;;
9968;SDS011;5025;48.890;9.278;2023-04-26T07:56:05;7.80;;;6.90;;
9968;SDS011;5025;48.890;9.278;2023-04-26T07:58:35;8.13;;;6.10;;
9968;SDS011;5025;48.890;9.278;2023-04-26T08:01:01;6.03;;;5.40;;
9968;SDS011;5025;48.890;9.278;2023-04-26T08:03:27;5.70;;;5.20;;
9968;SDS011;5025;48.890;9.278;2023-04-26T08:05:53;6.03;;;5.30;;
9968;SDS011;5025;48.890;9.278;2023-04-26T08:08:19;5.07;;;4.67;;
9968;SDS011;5025;48.890;9.278;2023-04-26T08:10:44;4.17;;;3.87;;
9968;SDS011;5025;48.890;9.278;2023-04-26T08:13:10;4.30;;;4.00;;
9968;SDS011;5025;48.890;9.278;2023-04-26T08:15:35;4.63;;;4.23;;
9968;SDS011;5025;48.890;9.278;2023-04-26T08:18:01;4.30;;;3.90;;
9968;SDS011;5025;48.890;9.278;2023-04-26T08:20:26;6.30;;;5.70;;
9968;SDS011;5025;48.890;9.278;2023-04-26T08:22:55;5.60;;;4.90;;
9968;SDS011;5025;48.890;9.278;2023-04-26T08:25:21;5.50;;;4.40;;
9968;SDS011;5025;48.890;9.278;2023-04-26T08:27:47;6.80;;;5.03;;
9968;SDS011;5025;48.890;9.278;2023-04-26T08:30:12;6.03;;;4.70;;
9968;SDS011;5025;48.890;9.278;2023-04-26T08:32:37;6.83;;;4.70;;
9968;SDS011;5025;48.890;9.278;2023-04-26T08:35:03;6.33;;;4.50;;
9968;SDS011;5025;48.890;9.278;2023-04-26T08:37:28;6.17;;;4.40;;
9968;SDS011;5025;48.890;9.278;2023-04-26T08:39:54;5.67;;;5.00;;
9968;SDS011;5025;48.890;9.278;2023-04-26T08:42:19;5.20;;;4.70;;
9968;SDS011;5025;48.890;9.278;2023-04-26T08:44:49;5.63;;;4.93;;
9968;SDS011;5025;48.890;9.278;2023-04-26T08:50:13;7.20;;;5.07;;
9968;SDS011;5025;48.890;9.278;2023-04-26T08:52:41;6.23;;;5.20;;
9968;SDS011;5025;48.890;9.278;2023-04-26T08:55:07;5.33;;;4.83;;
9968;SDS011;5025;48.890;9.278;2023-04-26T08:57:37;5.17;;;4.67;;
9968;SDS011;5025;48.890;9.278;2023-04-26T09:00:04;4.87;;;4.17;;
9968;SDS011;5025;48.890;9.278;2023-04-26T09:02:34;5.53;;;4.63;;
9968;SDS011;5025;48.890;9.278;2023-04-26T09:04:59;4.53;;;3.83;;
9968;SDS011;5025;48.890;9.278;2023-04-26T09:07:31;5.87;;;4.87;;
9968;SDS011;5025;48.890;9.278;2023-04-26T09:09:59;5.17;;;4.43;;
9968;SDS011;5025;48.890;9.278;2023-04-26T09:12:25;6.10;;;4.80;;
9968;SDS011;5025;48.890;9.278;2023-04-26T09:14:51;5.43;;;4.97;;
9968;SDS011;5025;48.890;9.278;2023-04-26T09:17:38;6.20;;;4.90;;
9968;SDS011;5025;48.890;9.278;2023-04-26T09:23:05;6.20;;;3.93;;
9968;SDS011;5025;48.890;9.278;2023-04-26T09:25:32;4.67;;;3.70;;
9968;SDS011;5025;48.890;9.278;2023-04-26T09:27:58;7.93;;;4.93;;
9968;SDS011;5025;48.890;9.278;2023-04-26T09:30:25;5.57;;;4.23;;
9968;SDS011;5025;48.890;9.278;2023-04-26T09:32:55;4.10;;;3.63;;
9968;SDS011;5025;48.890;9.278;2023-04-26T09:35:34;3.33;;;3.10;;
9968;SDS011;5025;48.890;9.278;2023-04-26T09:38:03;3.33;;;3.03;;
9968;SDS011;5025;48.890;9.278;2023-04-26T09:40:32;3.37;;;3.03;;
9968;SDS011;5025;48.890;9.278;2023-04-26T09:43:09;3.60;;;2.77;;
9968;SDS011;5025;48.890;9.278;2023-04-26T09:48:14;5.70;;;4.30;;
9968;SDS011;5025;48.890;9.278;2023-04-26T09:53:34;5.87;;;3.77;;
9968;SDS011;5025;48.890;9.278;2023-04-26T09:56:12;4.63;;;3.47;;
9968;SDS011;5025;48.890;9.278;2023-04-26T09:58:58;4.87;;;3.20;;
9968;SDS011;5025;48.890;9.278;2023-04-26T10:01:25;3.50;;;2.73;;
9968;SDS011;5025;48.890;9.278;2023-04-26T10:03:55;7.83;;;4.50;;
9968;SDS011;5025;48.890;9.278;2023-04-26T10:06:21;5.00;;;4.27;;
9968;SDS011;5025;48.890;9.278;2023-04-26T10:08:47;3.63;;;3.33;;
9968;SDS011;5025;48.890;9.278;2023-04-26T10:11:12;5.07;;;4.03;;
9968;SDS011;5025;48.890;9.278;2023-04-26T10:13:38;5.40;;;3.53;;
9968;SDS011;5025;48.890;9.278;2023-04-26T10:16:07;6.53;;;4.30;;
9968;SDS011;5025;48.890;9.278;2023-04-26T10:18:34;7.57;;;4.97;;
9968;SDS011;5025;48.890;9.278;2023-04-26T10:21:10;6.93;;;4.13;;
9968;SDS011;5025;48.890;9.278;2023-04-26T10:23:51;5.17;;;3.50;;
9968;SDS011;5025;48.890;9.278;2023-04-26T10:27:02;3.67;;;3.30;;
9968;SDS011;5025;48.890;9.278;2023-04-26T10:29:16;4.33;;;3.07;;
9968;SDS011;5025;48.890;9.278;2023-04-26T10:34:26;2.40;;;2.30;;
9968;SDS011;5025;48.890;9.278;2023-04-26T10:39:33;4.83;;;3.50;;
9968;SDS011;5025;48.890;9.278;2023-04-26T10:44:47;6.33;;;3.73;;
9968;SDS011;5025;48.890;9.278;2023-04-26T10:47:27;6.43;;;4.00;;
9968;SDS011;5025;48.890;9.278;2023-04-26T10:49:53;5.13;;;3.83;;
9968;SDS011;5025;48.890;9.278;2023-04-26T10:52:26;4.67;;;3.87;;
9968;SDS011;5025;48.890;9.278;2023-04-26T10:54:54;3.13;;;2.80;;
9968;SDS011;5025;48.890;9.278;2023-04-26T10:57:22;3.87;;;3.07;;
9968;SDS011;5025;48.890;9.278;2023-04-26T11:02:51;4.03;;;2.83;;
9968;SDS011;5025;48.890;9.278;2023-04-26T11:08:15;3.83;;;3.27;;
9968;SDS011;5025;48.890;9.278;2023-04-26T11:10:42;5.73;;;3.80;;
9968;SDS011;5025;48.890;9.278;2023-04-26T11:13:10;3.47;;;2.97;;
9968;SDS011;5025;48.890;9.278;2023-04-26T11:15:35;3.37;;;3.07;;
9968;SDS011;5025;48.890;9.278;2023-04-26T11:18:01;3.57;;;2.83;;
9968;SDS011;5025;48.890;9.278;2023-04-26T11:20:30;3.43;;;3.13;;
9968;SDS011;5025;48.890;9.278;2023-04-26T11:22:56;4.53;;;3.50;;
9968;SDS011;5025;48.890;9.278;2023-04-26T11:25:26;3.20;;;2.70;;
9968;SDS011;5025;48.890;9.278;2023-04-26T11:28:01;3.23;;;2.90;;
9968;SDS011;5025;48.890;9.278;2023-04-26T11:30:28;6.40;;;4.23;;
9968;SDS011;5025;48.890;9.278;2023-04-26T11:32:55;6.03;;;3.80;;
9968;SDS011;5025;48.890;9.278;2023-04-26T11:35:21;5.93;;;3.40;;
9968;SDS011;5025;48.890;9.278;2023-04-26T11:37:47;5.10;;;3.23;;
9968;SDS011;5025;48.890;9.278;2023-04-26T11:40:15;3.57;;;2.87;;
9968;SDS011;5025;48.890;9.278;2023-04-26T11:42:42;3.83;;;3.17;;
9968;SDS011;5025;48.890;9.278;2023-04-26T11:45:08;4.77;;;3.20;;
9968;SDS011;5025;48.890;9.278;2023-04-26T11:47:34;3.70;;;3.10;;
9968;SDS011;5025;48.890;9.278;2023-04-26T11:50:00;5.43;;;3.17;;
9968;SDS011;5025;48.890;9.278;2023-04-26T11:52:25;5.10;;;3.73;;
9968;SDS011;5025;48.890;9.278;2023-04-26T11:55:00;3.60;;;2.90;;
9968;SDS011;5025;48.890;9.278;2023-04-26T11:57:29;3.20;;;3.00;;
9968;SDS011;5025;48.890;9.278;2023-04-26T12:02:38;4.00;;;3.10;;
9968;SDS011;5025;48.890;9.278;2023-04-26T12:05:04;3.10;;;2.80;;
9968;SDS011;5025;48.890;9.278;2023-04-26T12:07:36;3.97;;;3.07;;
9968;SDS011;5025;48.890;9.278;2023-04-26T12:13:02;4.33;;;2.93;;
9968;SDS011;5025;48.890;9.278;2023-04-26T12:15:31;4.27;;;2.77;;
9968;SDS011;5025;48.890;9.278;2023-04-26T12:18:07;2.97;;;2.60;;
9968;SDS011;5025;48.890;9.278;2023-04-26T12:20:34;3.57;;;2.53;;
9968;SDS011;5025;48.890;9.278;2023-04-26T12:23:11;2.07;;;1.90;;
9968;SDS011;5025;48.890;9.278;2023-04-26T12:25:39;2.57;;;2.10;;
9968;SDS011;5025;48.890;9.278;2023-04-26T12:28:07;2.63;;;2.40;;
9968;SDS011;5025;48.890;9.278;2023-04-26T12:30:36;2.13;;;1.90;;
9968;SDS011;5025;48.890;9.278;2023-04-26T12:33:02;3.67;;;1.93;;
9968;SDS011;5025;48.890;9.278;2023-04-26T12:35:27;3.20;;;2.20;;
9968;SDS011;5025;48.890;9.278;2023-04-26T12:37:53;1.90;;;1.80;;
9968;SDS011;5025;48.890;9.278;2023-04-26T12:40:20;2.20;;;2.00;;
9968;SDS011;5025;48.890;9.278;2023-04-26T12:42:49;2.83;;;2.17;;
9968;SDS011;5025;48.890;9.278;2023-04-26T12:45:15;1.80;;;1.70;;
9968;SDS011;5025;48.890;9.278;2023-04-26T12:47:42;2.83;;;2.20;;
9968;SDS011;5025;48.890;9.278;2023-04-26T12:50:08;2.47;;;2.03;;
9968;SDS011;5025;48.890;9.278;2023-04-26T12:52:36;2.10;;;2.00;;
9968;SDS011;5025;48.890;9.278;2023-04-26T12:55:03;3.77;;;3.30;;
9968;SDS011;5025;48.890;9.278;2023-04-26T12:57:29;3.47;;;2.40;;
9968;SDS011;5025;48.890;9.278;2023-04-26T12:59:54;2.60;;;2.33;;
9968;SDS011;5025;48.890;9.278;2023-04-26T13:02:20;2.30;;;2.10;;
9968;SDS011;5025;48.890;9.278;2023-04-26T13:04:46;2.30;;;2.10;;
9968;SDS011;5025;48.890;9.278;2023-04-26T13:07:11;1.80;;;1.70;;
9968;SDS011;5025;48.890;9.278;2023-04-26T13:09:36;2.70;;;2.00;;
9968;SDS011;5025;48.890;9.278;2023-04-26T13:12:02;2.80;;;2.40;;
9968;SDS011;5025;48.890;9.278;2023-04-26T13:14:27;3.10;;;2.70;;
9968;SDS011;5025;48.890;9.278;2023-04-26T13:16:53;3.37;;;2.30;;
9968;SDS011;5025;48.890;9.278;2023-04-26T13:19:18;2.70;;;2.50;;
9968;SDS011;5025;48.890;9.278;2023-04-26T13:21:43;2.40;;;2.20;;
9968;SDS011;5025;48.890;9.278;2023-04-26T13:24:09;4.40;;;3.20;;
9968;SDS011;5025;48.890;9.278;2023-04-26T13:26:34;3.87;;;2.97;;
9968;SDS011;5025;48.890;9.278;2023-04-26T13:28:59;4.07;;;2.83;;
9968;SDS011;5025;48.890;9.278;2023-04-26T13:31:25;2.60;;;2.20;;
9968;SDS011;5025;48.890;9.278;2023-04-26T13:33:50;4.90;;;3.00;;
9968;SDS011;5025;48.890;9.278;2023-04-26T13:36:16;2.60;;;2.40;;
9968;SDS011;5025;48.890;9.278;2023-04-26T13:38:41;3.53;;;3.23;;
9968;SDS011;5025;48.890;9.278;2023-04-26T13:41:08;3.80;;;2.80;;
9968;SDS011;5025;48.890;9.278;2023-04-26T13:43:33;2.67;;;2.30;;
9968;SDS011;5025;48.890;9.278;2023-04-26T13:45:59;2.20;;;2.00;;
9968;SDS011;5025;48.890;9.278;2023-04-26T13:48:24;3.67;;;2.80;;
9968;SDS011;5025;48.890;9.278;2023-04-26T13:50:50;3.97;;;2.70;;
9968;SDS011;5025;48.890;9.278;2023-04-26T13:53:16;3.00;;;2.70;;
9968;SDS011;5025;48.890;9.278;2023-04-26T13:55:41;4.10;;;3.17;;
9968;SDS011;5025;48.890;9.278;2023-04-26T13:58:06;3.27;;;2.53;;
9968;SDS011;5025;48.890;9.278;2023-04-26T14:00:32;2.97;;;2.40;;
9968;SDS011;5025;48.890;9.278;2023-04-26T14:02:57;3.10;;;2.47;;
9968;SDS011;5025;48.890;9.278;2023-04-26T14:05:22;3.70;;;2.60;;
9968;SDS011;5025;48.890;9.278;2023-04-26T14:07:47;2.43;;;1.80;;
9968;SDS011;5025;48.890;9.278;2023-04-26T14:10:13;2.40;;;2.20;;
9968;SDS011;5025;48.890;9.278;2023-04-26T14:12:39;1.90;;;1.80;;
9968;SDS011;5025;48.890;9.278;2023-04-26T14:15:05;2.00;;;1.80;;
9968;SDS011;5025;48.890;9.278;2023-04-26T14:17:31;1.83;;;1.50;;
9968;SDS011;5025;48.890;9.278;2023-04-26T14:19:57;1.53;;;1.43;;
9968;SDS011;5025;48.890;9.278;2023-04-26T14:22:22;3.03;;;2.30;;
9968;SDS011;5025;48.890;9.278;2023-04-26T14:24:47;2.90;;;2.60;;
9968;SDS011;5025;48.890;9.278;2023-04-26T14:27:13;2.67;;;2.47;;
9968;SDS011;5025;48.890;9.278;2023-04-26T14:29:38;2.20;;;2.00;;
9968;SDS011;5025;48.890;9.278;2023-04-26T14:32:03;2.33;;;2.00;;
9968;SDS011;5025;48.890;9.278;2023-04-26T14:34:29;1.90;;;1.80;;
9968;SDS011;5025;48.890;9.278;2023-04-26T14:36:55;1.80;;;1.70;;
9968;SDS011;5025;48.890;9.278;2023-04-26T14:39:25;2.37;;;1.97;;
9968;SDS011;5025;48.890;9.278;2023-04-26T14:41:50;2.10;;;1.90;;
9968;SDS011;5025;48.890;9.278;2023-04-26T14:44:16;1.90;;;1.80;;
9968;SDS011;5025;48.890;9.278;2023-04-26T14:46:41;2.33;;;2.10;;
9968;SDS011;5025;48.890;9.278;2023-04-26T14:49:06;2.20;;;1.90;;
9968;SDS011;5025;48.890;9.278;2023-04-26T14:51:31;2.90;;;2.30;;
9968;SDS011;5025;48.890;9.278;2023-04-26T14:53:57;3.60;;;2.40;;
9968;SDS011;5025;48.890;9.278;2023-04-26T14:56:22;2.23;;;2.03;;
9968;SDS011;5025;48.890;9.278;2023-04-26T14:58:47;2.60;;;2.33;;
9968;SDS011;5025;48.890;9.278;2023-04-26T15:01:13;2.00;;;1.80;;
9968;SDS011;5025;48.890;9.278;2023-04-26T15:03:38;1.50;;;1.40;;
9968;SDS011;5025;48.890;9.278;2023-04-26T15:06:03;2.90;;;2.20;;
9968;SDS011;5025;48.890;9.278;2023-04-26T15:08:28;2.00;;;1.60;;
9968;SDS011;5025;48.890;9.278;2023-04-26T15:10:54;1.60;;;1.50;;
9968;SDS011;5025;48.890;9.278;2023-04-26T15:13:19;1.50;;;1.40;;
9968;SDS011;5025;48.890;9.278;2023-04-26T15:15:44;2.83;;;1.80;;
9968;SDS011;5025;48.890;9.278;2023-04-26T15:18:10;2.33;;;2.13;;
9968;SDS011;5025;48.890;9.278;2023-04-26T15:20:38;3.37;;;2.30;;
9968;SDS011;5025;48.890;9.278;2023-04-26T15:23:05;2.07;;;1.87;;
9968;SDS011;5025;48.890;9.278;2023-04-26T15:25:32;2.27;;;2.00;;
9968;SDS011;5025;48.890;9.278;2023-04-26T15:27:58;2.10;;;1.83;;
9968;SDS011;5025;48.890;9.278;2023-04-26T15:30:24;2.03;;;1.70;;
9968;SDS011;5025;48.890;9.278;2023-04-26T15:32:49;1.73;;;1.57;;
9968;SDS011;5025;48.890;9.278;2023-04-26T15:35:14;2.83;;;2.30;;
9968;SDS011;5025;48.890;9.278;2023-04-26T15:37:40;3.33;;;2.10;;
9968;SDS011;5025;48.890;9.278;2023-04-26T15:40:06;2.47;;;2.10;;
9968;SDS011;5025;48.890;9.278;2023-04-26T15:42:34;1.60;;;1.50;;
9968;SDS011;5025;48.890;9.278;2023-04-26T15:45:00;2.20;;;1.40;;
9968;SDS011;5025;48.890;9.278;2023-04-26T15:47:26;2.43;;;2.00;;
9968;SDS011;5025;48.890;9.278;2023-04-26T15:49:51;1.83;;;1.50;;
9968;SDS011;5025;48.890;9.278;2023-04-26T15:52:18;1.70;;;1.60;;
9968;SDS011;5025;48.890;9.278;2023-04-26T15:54:43;2.37;;;1.80;;
9968;SDS011;5025;48.890;9.278;2023-04-26T15:57:09;2.40;;;1.50;;
9968;SDS011;5025;48.890;9.278;2023-04-26T15:59:34;2.53;;;2.00;;
9968;SDS011;5025;48.890;9.278;2023-04-26T16:02:00;2.60;;;1.90;;
9968;SDS011;5025;48.890;9.278;2023-04-26T16:04:25;1.93;;;1.60;;
9968;SDS011;5025;48.890;9.278;2023-04-26T16:06:51;2.70;;;1.93;;
9968;SDS011;5025;48.890;9.278;2023-04-26T16:09:16;1.73;;;1.60;;
9968;SDS011;5025;48.890;9.278;2023-04-26T16:11:43;3.00;;;1.90;;
9968;SDS011;5025;48.890;9.278;2023-04-26T16:14:09;2.23;;;1.80;;
9968;SDS011;5025;48.890;9.278;2023-04-26T16:16:35;3.17;;;1.60;;
9968;SDS011;5025;48.890;9.278;2023-04-26T16:19:00;1.60;;;1.50;;
9968;SDS011;5025;48.890;9.278;2023-04-26T16:21:25;3.33;;;2.10;;
9968;SDS011;5025;48.890;9.278;2023-04-26T16:23:51;2.40;;;2.20;;
9968;SDS011;5025;48.890;9.278;2023-04-26T16:26:16;2.37;;;1.80;;
9968;SDS011;5025;48.890;9.278;2023-04-26T16:28:42;2.27;;;2.07;;
9968;SDS011;5025;48.890;9.278;2023-04-26T16:31:07;1.70;;;1.60;;
9968;SDS011;5025;48.890;9.278;2023-04-26T16:33:33;2.50;;;2.00;;
9968;SDS011;5025;48.890;9.278;2023-04-26T16:35:59;2.43;;;1.80;;
9968;SDS011;5025;48.890;9.278;2023-04-26T16:38:24;1.70;;;1.60;;
9968;SDS011;5025;48.890;9.278;2023-04-26T16:40:53;2.67;;;2.17;;
9968;SDS011;5025;48.890;9.278;2023-04-26T16:43:21;1.53;;;1.43;;
9968;SDS011;5025;48.890;9.278;2023-04-26T16:45:55;3.37;;;2.00;;
9968;SDS011;5025;48.890;9.278;2023-04-26T16:48:24;2.40;;;2.20;;
9968;SDS011;5025;48.890;9.278;2023-04-26T16:50:49;2.17;;;1.97;;
9968;SDS011;5025;48.890;9.278;2023-04-26T16:53:15;2.60;;;1.87;;
9968;SDS011;5025;48.890;9.278;2023-04-26T16:55:41;2.33;;;1.83;;
9968;SDS011;5025;48.890;9.278;2023-04-26T16:58:07;3.90;;;1.70;;
9968;SDS011;5025;48.890;9.278;2023-04-26T17:00:32;3.77;;;2.27;;
9968;SDS011;5025;48.890;9.278;2023-04-26T17:02:57;2.63;;;1.83;;
9968;SDS011;5025;48.890;9.278;2023-04-26T17:05:22;2.40;;;2.00;;
9968;SDS011;5025;48.890;9.278;2023-04-26T17:07:48;3.60;;;2.00;;
9968;SDS011;5025;48.890;9.278;2023-04-26T17:10:13;2.50;;;2.00;;
9968;SDS011;5025;48.890;9.278;2023-04-26T17:12:38;2.07;;;1.97;;
9968;SDS011;5025;48.890;9.278;2023-04-26T17:15:04;2.10;;;2.00;;
9968;SDS011;5025;48.890;9.278;2023-04-26T17:17:30;2.20;;;2.00;;
9968;SDS011;5025;48.890;9.278;2023-04-26T17:19:56;2.33;;;1.90;;
9968;SDS011;5025;48.890;9.278;2023-04-26T17:22:21;2.40;;;2.20;;
9968;SDS011;5025;48.890;9.278;2023-04-26T17:24:46;1.80;;;1.70;;
9968;SDS011;5025;48.890;9.278;2023-04-26T17:27:11;3.60;;;2.23;;
9968;SDS011;5025;48.890;9.278;2023-04-26T17:29:37;3.50;;;2.40;;
9968;SDS011;5025;48.890;9.278;2023-04-26T17:32:02;1.80;;;1.70;;
9968;SDS011;5025;48.890;9.278;2023-04-26T17:34:27;2.53;;;1.90;;
9968;SDS011;5025;48.890;9.278;2023-04-26T17:36:52;1.97;;;1.70;;
9968;SDS011;5025;48.890;9.278;2023-04-26T17:39:18;1.70;;;1.60;;
9968;SDS011;5025;48.890;9.278;2023-04-26T17:41:43;1.90;;;1.40;;
9968;SDS011;5025;48.890;9.278;2023-04-26T17:44:08;1.67;;;1.57;;
9968;SDS011;5025;48.890;9.278;2023-04-26T17:46:33;2.70;;;1.60;;
9968;SDS011;5025;48.890;9.278;2023-04-26T17:48:59;2.17;;;1.53;;
9968;SDS011;5025;48.890;9.278;2023-04-26T17:51:25;2.53;;;1.60;;
9968;SDS011;5025;48.890;9.278;2023-04-26T17:53:50;2.83;;;1.60;;
9968;SDS011;5025;48.890;9.278;2023-04-26T17:56:15;1.43;;;1.33;;
9968;SDS011;5025;48.890;9.278;2023-04-26T17:58:41;1.60;;;1.50;;
9968;SDS011;5025;48.890;9.278;2023-04-26T18:01:06;2.73;;;1.70;;
9968;SDS011;5025;48.890;9.278;2023-04-26T18:03:31;1.60;;;1.50;;
9968;SDS011;5025;48.890;9.278;2023-04-26T18:05:59;2.47;;;1.73;;
9968;SDS011;5025;48.890;9.278;2023-04-26T18:08:24;2.20;;;1.70;;
9968;SDS011;5025;48.890;9.278;2023-04-26T18:10:50;1.60;;;1.50;;
9968;SDS011;5025;48.890;9.278;2023-04-26T18:13:17;1.77;;;1.53;;
9968;SDS011;5025;48.890;9.278;2023-04-26T18:15:43;1.60;;;1.50;;
9968;SDS011;5025;48.890;9.278;2023-04-26T18:18:08;1.77;;;1.67;;
9968;SDS011;5025;48.890;9.278;2023-04-26T18:20:36;2.90;;;1.80;;
9968;SDS011;5025;48.890;9.278;2023-04-26T18:23:01;1.70;;;1.60;;
9968;SDS011;5025;48.890;9.278;2023-04-26T18:25:27;2.00;;;1.80;;
9968;SDS011;5025;48.890;9.278;2023-04-26T18:27:52;2.13;;;1.80;;
9968;SDS011;5025;48.890;9.278;2023-04-26T18:30:18;1.80;;;1.70;;
9968;SDS011;5025;48.890;9.278;2023-04-26T18:32:43;1.80;;;1.70;;
9968;SDS011;5025;48.890;9.278;2023-04-26T18:35:09;2.90;;;1.80;;
9968;SDS011;5025;48.890;9.278;2023-04-26T18:37:34;1.80;;;1.50;;
9968;SDS011;5025;48.890;9.278;2023-04-26T18:40:03;2.23;;;2.03;;
9968;SDS011;5025;48.890;9.278;2023-04-26T18:42:29;2.07;;;1.80;;
9968;SDS011;5025;48.890;9.278;2023-04-26T18:44:55;2.63;;;2.17;;
9968;SDS011;5025;48.890;9.278;2023-04-26T18:47:20;3.00;;;2.70;;
9968;SDS011;5025;48.890;9.278;2023-04-26T18:49:45;3.37;;;2.80;;
9968;SDS011;5025;48.890;9.278;2023-04-26T18:52:11;3.63;;;3.13;;
9968;SDS011;5025;48.890;9.278;2023-04-26T18:54:36;4.23;;;3.83;;
9968;SDS011;5025;48.890;9.278;2023-04-26T18:57:02;4.07;;;3.67;;
9968;SDS011;5025;48.890;9.278;2023-04-26T18:59:30;5.23;;;3.83;;
9968;SDS011;5025;48.890;9.278;2023-04-26T19:01:56;4.80;;;4.20;;
9968;SDS011;5025;48.890;9.278;2023-04-26T19:04:21;4.17;;;3.77;;
9968;SDS011;5025;48.890;9.278;2023-04-26T19:06:50;3.50;;;3.20;;
9968;SDS011;5025;48.890;9.278;2023-04-26T19:09:15;2.90;;;2.70;;
9968;SDS011;5025;48.890;9.278;2023-04-26T19:11:40;2.67;;;2.47;;
9968;SDS011;5025;48.890;9.278;2023-04-26T19:14:05;2.47;;;2.10;;
9968;SDS011;5025;48.890;9.278;2023-04-26T19:16:31;2.40;;;2.20;;
9968;SDS011;5025;48.890;9.278;2023-04-26T19:18:56;2.37;;;2.17;;
9968;SDS011;5025;48.890;9.278;2023-04-26T19:21:22;2.30;;;2.00;;
9968;SDS011;5025;48.890;9.278;2023-04-26T19:23:47;2.00;;;1.80;;
9968;SDS011;5025;48.890;9.278;2023-04-26T19:26:12;3.13;;;2.17;;
9968;SDS011;5025;48.890;9.278;2023-04-26T19:28:38;2.33;;;2.10;;
9968;SDS011;5025;48.890;9.278;2023-04-26T19:31:03;2.30;;;1.87;;
9968;SDS011;5025;48.890;9.278;2023-04-26T19:33:29;2.07;;;1.67;;
9968;SDS011;5025;48.890;9.278;2023-04-26T19:35:54;2.13;;;2.00;;
9968;SDS011;5025;48.890;9.278;2023-04-26T19:38:23;2.00;;;1.90;;
9968;SDS011;5025;48.890;9.278;2023-04-26T19:40:49;2.17;;;1.90;;
9968;SDS011;5025;48.890;9.278;2023-04-26T19:43:15;2.80;;;2.10;;
9968;SDS011;5025;48.890;9.278;2023-04-26T19:45:41;2.10;;;1.90;;
9968;SDS011;5025;48.890;9.278;2023-04-26T19:48:07;2.40;;;2.20;;
9968;SDS011;5025;48.890;9.278;2023-04-26T19:50:36;2.40;;;2.20;;
9968;SDS011;5025;48.890;9.278;2023-04-26T19:53:06;1.73;;;1.63;;
9968;SDS011;5025;48.890;9.278;2023-04-26T19:55:32;2.20;;;1.90;;
9968;SDS011;5025;48.890;9.278;2023-04-26T19:57:57;2.53;;;2.00;;
9968;SDS011;5025;48.890;9.278;2023-04-26T20:00:23;2.27;;;2.10;;
9968;SDS011;5025;48.890;9.278;2023-04-26T20:02:49;2.10;;;1.90;;
9968;SDS011;5025;48.890;9.278;2023-04-26T20:05:14;1.63;;;1.53;;
9968;SDS011;5025;48.890;9.278;2023-04-26T20:07:40;1.80;;;1.70;;
9968;SDS011;5025;48.890;9.278;2023-04-26T20:10:05;2.37;;;1.60;;
9968;SDS011;5025;48.890;9.278;2023-04-26T20:12:31;1.80;;;1.70;;
9968;SDS011;5025;48.890;9.278;2023-04-26T20:14:57;1.90;;;1.80;;
9968;SDS011;5025;48.890;9.278;2023-04-26T20:17:22;2.20;;;2.00;;
9968;SDS011;5025;48.890;9.278;2023-04-26T20:19:47;2.27;;;2.10;;
9968;SDS011;5025;48.890;9.278;2023-04-26T20:22:13;2.50;;;2.30;;
9968;SDS011;5025;48.890;9.278;2023-04-26T20:24:38;3.47;;;2.83;;
9968;SDS011;5025;48.890;9.278;2023-04-26T20:27:03;3.37;;;3.07;;
9968;SDS011;5025;48.890;9.278;2023-04-26T20:29:28;2.93;;;2.70;;
9968;SDS011;5025;48.890;9.278;2023-04-26T20:31:54;5.50;;;3.87;;
9968;SDS011;5025;48.890;9.278;2023-04-26T20:34:19;4.37;;;3.20;;
9968;SDS011;5025;48.890;9.278;2023-04-26T20:36:44;8.90;;;6.20;;
9968;SDS011;5025;48.890;9.278;2023-04-26T20:39:10;6.17;;;5.57;;
9968;SDS011;5025;48.890;9.278;2023-04-26T20:41:35;8.83;;;6.90;;
9968;SDS011;5025;48.890;9.278;2023-04-26T20:44:01;8.03;;;7.03;;
9968;SDS011;5025;48.890;9.278;2023-04-26T20:46:26;7.43;;;6.10;;
9968;SDS011;5025;48.890;9.278;2023-04-26T20:48:51;6.47;;;5.70;;
9968;SDS011;5025;48.890;9.278;2023-04-26T20:51:17;6.23;;;5.60;;
9968;SDS011;5025;48.890;9.278;2023-04-26T20:53:42;5.57;;;4.63;;
9968;SDS011;5025;48.890;9.278;2023-04-26T20:56:07;5.03;;;4.10;;
9968;SDS011;5025;48.890;9.278;2023-04-26T20:58:33;4.47;;;3.97;;
9968;SDS011;5025;48.890;9.278;2023-04-26T21:00:58;4.93;;;4.43;;
9968;SDS011;5025;48.890;9.278;2023-04-26T21:03:24;5.97;;;5.07;;
9968;SDS011;5025;48.890;9.278;2023-04-26T21:05:49;5.47;;;4.37;;
9968;SDS011;5025;48.890;9.278;2023-04-26T21:08:14;5.40;;;4.57;;
9968;SDS011;5025;48.890;9.278;2023-04-26T21:10:40;6.80;;;4.07;;
9968;SDS011;5025;48.890;9.278;2023-04-26T21:13:05;5.73;;;4.47;;
9968;SDS011;5025;48.890;9.278;2023-04-26T21:15:30;4.37;;;3.77;;
9968;SDS011;5025;48.890;9.278;2023-04-26T21:17:57;5.60;;;3.60;;
9968;SDS011;5025;48.890;9.278;2023-04-26T21:20:22;4.17;;;3.50;;
9968;SDS011;5025;48.890;9.278;2023-04-26T21:22:47;6.17;;;3.23;;
9968;SDS011;5025;48.890;9.278;2023-04-26T21:25:13;3.00;;;2.80;;
9968;SDS011;5025;48.890;9.278;2023-04-26T21:27:41;3.37;;;3.07;;
9968;SDS011;5025;48.890;9.278;2023-04-26T21:30:10;3.43;;;3.20;;
9968;SDS011;5025;48.890;9.278;2023-04-26T21:32:36;8.47;;;3.90;;
9968;SDS011;5025;48.890;9.278;2023-04-26T21:35:04;4.43;;;3.87;;
9968;SDS011;5025;48.890;9.278;2023-04-26T21:37:30;4.07;;;3.70;;
9968;SDS011;5025;48.890;9.278;2023-04-26T21:39:55;4.13;;;3.43;;
9968;SDS011;5025;48.890;9.278;2023-04-26T21:42:21;4.83;;;3.70;;
9968;SDS011;5025;48.890;9.278;2023-04-26T21:44:46;4.03;;;3.63;;
9968;SDS011;5025;48.890;9.278;2023-04-26T21:47:11;3.50;;;3.20;;
9968;SDS011;5025;48.890;9.278;2023-04-26T21:49:37;3.77;;;3.47;;
9968;SDS011;5025;48.890;9.278;2023-04-26T21:52:03;5.03;;;3.33;;
9968;SDS011;5025;48.890;9.278;2023-04-26T21:54:28;3.80;;;2.90;;
9968;SDS011;5025;48.890;9.278;2023-04-26T21:56:54;3.53;;;3.17;;
9968;SDS011;5025;48.890;9.278;2023-04-26T21:59:19;3.60;;;3.30;;
9968;SDS011;5025;48.890;9.278;2023-04-26T22:01:44;3.20;;;3.00;;
9968;SDS011;5025;48.890;9.278;2023-04-26T22:04:09;3.40;;;3.20;;
9968;SDS011;5025;48.890;9.278;2023-04-26T22:06:35;3.70;;;3.40;;
9968;SDS011;5025;48.890;9.278;2023-04-26T22:09:00;3.30;;;3.03;;
9968;SDS011;5025;48.890;9.278;2023-04-26T22:11:25;3.40;;;3.10;;
9968;SDS011;5025;48.890;9.278;2023-04-26T22:13:50;3.50;;;3.20;;
9968;SDS011;5025;48.890;9.278;2023-04-26T22:16:16;3.47;;;3.20;;
9968;SDS011;5025;48.890;9.278;2023-04-26T22:18:41;3.43;;;3.20;;
9968;SDS011;5025;48.890;9.278;2023-04-26T22:21:06;3.47;;;2.90;;
9968;SDS011;5025;48.890;9.278;2023-04-26T22:23:32;3.50;;;3.20;;
9968;SDS011;5025;48.890;9.278;2023-04-26T22:25:57;3.50;;;3.20;;
9968;SDS011;5025;48.890;9.278;2023-04-26T22:28:24;3.33;;;3.03;;
9968;SDS011;5025;48.890;9.278;2023-04-26T22:30:51;4.53;;;3.20;;
9968;SDS011;5025;48.890;9.278;2023-04-26T22:33:17;2.60;;;2.50;;
9968;SDS011;5025;48.890;9.278;2023-04-26T22:35:42;3.10;;;2.83;;
9968;SDS011;5025;48.890;9.278;2023-04-26T22:38:08;3.10;;;2.90;;
9968;SDS011;5025;48.890;9.278;2023-04-26T22:40:33;3.30;;;3.10;;
9968;SDS011;5025;48.890;9.278;2023-04-26T22:42:59;3.03;;;2.73;;
9968;SDS011;5025;48.890;9.278;2023-04-26T22:45:25;3.07;;;2.87;;
9968;SDS011;5025;48.890;9.278;2023-04-26T22:47:50;2.93;;;2.73;;
9968;SDS011;5025;48.890;9.278;2023-04-26T22:50:15;3.43;;;3.03;;
9968;SDS011;5025;48.890;9.278;2023-04-26T22:52:40;3.33;;;2.80;;
9968;SDS011;5025;48.890;9.278;2023-04-26T22:55:06;3.10;;;2.80;;
9968;SDS011;5025;48.890;9.278;2023-04-26T22:57:32;3.43;;;3.17;;
9968;SDS011;5025;48.890;9.278;2023-04-26T22:59:57;3.00;;;2.80;;
9968;SDS011;5025;48.890;9.278;2023-04-26T23:02:22;3.30;;;3.00;;
9968;SDS011;5025;48.890;9.278;2023-04-26T23:04:47;2.50;;;2.30;;
9968;SDS011;5025;48.890;9.278;2023-04-26T23:07:13;3.30;;;3.00;;
9968;SDS011;5025;48.890;9.278;2023-04-26T23:09:38;4.50;;;3.03;;